sensor_id;sensor_type;location;lat;lon;timestamp;P1;durP1;ratioP1;P2;durP2;ratioP2
32786;SDS011;19139;49.372;8.580;2022-11-20T00:01:04;2.60;;;2.40;;
32786;SDS011;19139;49.372;8.580;2022-11-20T00:03:35;3.00;;;2.07;;
32786;SDS011;19139;49.372;8.580;2022-11-20T00:06:07;2.80;;;2.13;;
32786;SDS011;19139;49.372;8.580;2022-11-20T00:08:36;2.10;;;1.80;;
32786;SDS011;19139;49.372;8.580;2022-11-20T00:11:10;2.27;;;2.07;;
32786;SDS011;19139;49.372;8.580;2022-11-20T00:13:44;3.00;;;2.50;;
32786;SDS011;19139;49.372;8.580;2022-11-20T00:16:14;3.63;;;2.00;;
32786;SDS011;19139;49.372;8.580;2022-11-20T00:18:43;2.67;;;2.47;;
32786;SDS011;19139;49.372;8.580;2022-11-20T00:21:11;2.97;;;2.20;;
32786;SDS011;19139;49.372;8.580;2022-11-20T00:23:43;2.20;;;2.00;;
32786;SDS011;19139;49.372;8.580;2022-11-20T00:26:11;3.57;;;2.00;;
32786;SDS011;19139;49.372;8.580;2022-11-20T00:28:42;1.80;;;1.70;;
32786;SDS011;19139;49.372;8.580;2022-11-20T00:31:11;2.73;;;2.20;;
32786;SDS011;19139;49.372;8.580;2022-11-20T00:33:40;2.47;;;2.27;;
32786;SDS011;19139;49.372;8.580;2022-11-20T00:36:14;2.30;;;2.10;;
32786;SDS011;19139;49.372;8.580;2022-11-20T00:38:45;2.87;;;2.07;;
32786;SDS011;19139;49.372;8.580;2022-11-20T00:41:13;2.70;;;2.43;;
32786;SDS011;19139;49.372;8.580;2022-11-20T00:43:41;3.00;;;2.30;;
32786;SDS011;19139;49.372;8.580;2022-11-20T00:46:14;2.30;;;1.93;;
32786;SDS011;19139;49.372;8.580;2022-11-20T00:48:42;3.30;;;2.50;;
32786;SDS011;19139;49.372;8.580;2022-11-20T00:51:14;3.20;;;1.77;;
32786;SDS011;19139;49.372;8.580;2022-11-20T00:53:43;2.60;;;2.20;;
32786;SDS011;19139;49.372;8.580;2022-11-20T00:56:11;2.40;;;2.20;;
32786;SDS011;19139;49.372;8.580;2022-11-20T00:58:39;2.60;;;2.10;;
32786;SDS011;19139;49.372;8.580;2022-11-20T01:01:13;2.60;;;2.20;;
32786;SDS011;19139;49.372;8.580;2022-11-20T01:03:46;2.43;;;1.80;;
32786;SDS011;19139;49.372;8.580;2022-11-20T01:06:18;3.33;;;2.20;;
32786;SDS011;19139;49.372;8.580;2022-11-20T01:08:49;2.73;;;2.30;;
32786;SDS011;19139;49.372;8.580;2022-11-20T01:11:23;2.10;;;1.77;;
32786;SDS011;19139;49.372;8.580;2022-11-20T01:14:04;2.67;;;2.00;;
32786;SDS011;19139;49.372;8.580;2022-11-20T01:16:35;2.23;;;1.97;;
32786;SDS011;19139;49.372;8.580;2022-11-20T01:19:08;5.30;;;2.20;;
32786;SDS011;19139;49.372;8.580;2022-11-20T01:21:42;2.30;;;2.10;;
32786;SDS011;19139;49.372;8.580;2022-11-20T01:24:11;2.77;;;2.10;;
32786;SDS011;19139;49.372;8.580;2022-11-20T01:26:40;3.63;;;2.43;;
32786;SDS011;19139;49.372;8.580;2022-11-20T01:29:17;2.43;;;2.23;;
32786;SDS011;19139;49.372;8.580;2022-11-20T01:31:52;2.30;;;2.10;;
32786;SDS011;19139;49.372;8.580;2022-11-20T01:34:23;3.00;;;2.10;;
32786;SDS011;19139;49.372;8.580;2022-11-20T01:36:51;2.77;;;2.20;;
32786;SDS011;19139;49.372;8.580;2022-11-20T01:39:20;2.97;;;2.17;;
32786;SDS011;19139;49.372;8.580;2022-11-20T01:41:51;2.30;;;2.07;;
32786;SDS011;19139;49.372;8.580;2022-11-20T01:44:56;2.70;;;2.27;;
32786;SDS011;19139;49.372;8.580;2022-11-20T01:47:27;2.90;;;2.23;;
32786;SDS011;19139;49.372;8.580;2022-11-20T01:50:11;2.10;;;1.60;;
32786;SDS011;19139;49.372;8.580;2022-11-20T01:52:52;2.10;;;1.90;;
32786;SDS011;19139;49.372;8.580;2022-11-20T01:55:27;2.20;;;1.67;;
32786;SDS011;19139;49.372;8.580;2022-11-20T01:58:02;2.83;;;2.07;;
32786;SDS011;19139;49.372;8.580;2022-11-20T02:00:30;2.20;;;2.00;;
32786;SDS011;19139;49.372;8.580;2022-11-20T02:03:12;2.90;;;2.40;;
32786;SDS011;19139;49.372;8.580;2022-11-20T02:08:23;3.13;;;1.93;;
32786;SDS011;19139;49.372;8.580;2022-11-20T02:10:50;2.27;;;2.07;;
32786;SDS011;19139;49.372;8.580;2022-11-20T02:13:21;2.37;;;2.17;;
32786;SDS011;19139;49.372;8.580;2022-11-20T02:16:13;3.00;;;2.27;;
32786;SDS011;19139;49.372;8.580;2022-11-20T02:19:02;4.37;;;2.37;;
32786;SDS011;19139;49.372;8.580;2022-11-20T02:21:35;2.30;;;1.87;;
32786;SDS011;19139;49.372;8.580;2022-11-20T02:24:15;2.20;;;1.70;;
32786;SDS011;19139;49.372;8.580;2022-11-20T02:26:51;2.30;;;2.10;;
32786;SDS011;19139;49.372;8.580;2022-11-20T02:29:27;1.83;;;1.70;;
32786;SDS011;19139;49.372;8.580;2022-11-20T02:32:00;2.27;;;1.97;;
32786;SDS011;19139;49.372;8.580;2022-11-20T02:34:33;3.10;;;2.30;;
32786;SDS011;19139;49.372;8.580;2022-11-20T02:37:00;2.23;;;1.80;;
32786;SDS011;19139;49.372;8.580;2022-11-20T02:39:26;2.80;;;2.27;;
32786;SDS011;19139;49.372;8.580;2022-11-20T02:41:54;3.13;;;2.10;;
32786;SDS011;19139;49.372;8.580;2022-11-20T02:44:23;3.30;;;2.00;;
32786;SDS011;19139;49.372;8.580;2022-11-20T02:46:49;3.10;;;2.00;;
32786;SDS011;19139;49.372;8.580;2022-11-20T02:49:21;2.47;;;2.00;;
32786;SDS011;19139;49.372;8.580;2022-11-20T02:51:52;2.10;;;1.90;;
32786;SDS011;19139;49.372;8.580;2022-11-20T02:54:19;2.20;;;2.00;;
32786;SDS011;19139;49.372;8.580;2022-11-20T02:56:46;2.50;;;2.10;;
32786;SDS011;19139;49.372;8.580;2022-11-20T02:59:12;2.10;;;2.00;;
32786;SDS011;19139;49.372;8.580;2022-11-20T03:01:39;2.30;;;1.83;;
32786;SDS011;19139;49.372;8.580;2022-11-20T03:04:05;2.20;;;2.00;;
32786;SDS011;19139;49.372;8.580;2022-11-20T03:06:32;2.17;;;1.97;;
32786;SDS011;19139;49.372;8.580;2022-11-20T03:08:59;2.20;;;1.90;;
32786;SDS011;19139;49.372;8.580;2022-11-20T03:11:25;2.20;;;2.00;;
32786;SDS011;19139;49.372;8.580;2022-11-20T03:13:52;2.23;;;1.93;;
32786;SDS011;19139;49.372;8.580;2022-11-20T03:16:23;2.73;;;1.90;;
32786;SDS011;19139;49.372;8.580;2022-11-20T03:18:52;2.13;;;2.03;;
32786;SDS011;19139;49.372;8.580;2022-11-20T03:21:19;2.27;;;2.03;;
32786;SDS011;19139;49.372;8.580;2022-11-20T03:23:52;1.97;;;1.87;;
32786;SDS011;19139;49.372;8.580;2022-11-20T03:26:20;2.23;;;2.03;;
32786;SDS011;19139;49.372;8.580;2022-11-20T03:28:50;2.50;;;2.30;;
32786;SDS011;19139;49.372;8.580;2022-11-20T03:31:24;2.37;;;1.73;;
32786;SDS011;19139;49.372;8.580;2022-11-20T03:33:52;2.80;;;1.93;;
32786;SDS011;19139;49.372;8.580;2022-11-20T03:36:19;2.20;;;2.00;;
32786;SDS011;19139;49.372;8.580;2022-11-20T03:38:52;2.90;;;1.80;;
32786;SDS011;19139;49.372;8.580;2022-11-20T03:41:24;2.20;;;2.00;;
32786;SDS011;19139;49.372;8.580;2022-11-20T03:43:59;1.93;;;1.77;;
32786;SDS011;19139;49.372;8.580;2022-11-20T03:46:32;2.33;;;1.87;;
32786;SDS011;19139;49.372;8.580;2022-11-20T03:48:59;2.13;;;1.73;;
32786;SDS011;19139;49.372;8.580;2022-11-20T03:51:32;2.20;;;2.00;;
32786;SDS011;19139;49.372;8.580;2022-11-20T03:54:01;2.33;;;2.03;;
32786;SDS011;19139;49.372;8.580;2022-11-20T03:56:30;2.10;;;1.90;;
32786;SDS011;19139;49.372;8.580;2022-11-20T03:59:03;2.97;;;1.70;;
32786;SDS011;19139;49.372;8.580;2022-11-20T04:01:31;2.33;;;2.00;;
32786;SDS011;19139;49.372;8.580;2022-11-20T04:04:03;2.50;;;2.07;;
32786;SDS011;19139;49.372;8.580;2022-11-20T04:06:33;2.60;;;2.03;;
32786;SDS011;19139;49.372;8.580;2022-11-20T04:09:02;2.30;;;1.83;;
32786;SDS011;19139;49.372;8.580;2022-11-20T04:11:30;2.43;;;1.93;;
32786;SDS011;19139;49.372;8.580;2022-11-20T04:14:04;2.13;;;1.97;;
32786;SDS011;19139;49.372;8.580;2022-11-20T04:16:33;2.10;;;1.93;;
32786;SDS011;19139;49.372;8.580;2022-11-20T04:19:02;1.90;;;1.77;;
32786;SDS011;19139;49.372;8.580;2022-11-20T04:21:30;2.63;;;2.00;;
32786;SDS011;19139;49.372;8.580;2022-11-20T04:24:02;3.53;;;1.83;;
32786;SDS011;19139;49.372;8.580;2022-11-20T04:26:33;2.13;;;1.93;;
32786;SDS011;19139;49.372;8.580;2022-11-20T04:29:00;2.20;;;1.77;;
32786;SDS011;19139;49.372;8.580;2022-11-20T04:31:31;2.70;;;1.87;;
32786;SDS011;19139;49.372;8.580;2022-11-20T04:33:59;2.27;;;2.07;;
32786;SDS011;19139;49.372;8.580;2022-11-20T04:36:30;1.80;;;1.70;;
32786;SDS011;19139;49.372;8.580;2022-11-20T04:39:03;1.80;;;1.60;;
32786;SDS011;19139;49.372;8.580;2022-11-20T04:41:32;1.60;;;1.50;;
32786;SDS011;19139;49.372;8.580;2022-11-20T04:44:01;3.00;;;1.90;;
32786;SDS011;19139;49.372;8.580;2022-11-20T04:46:34;3.63;;;1.90;;
32786;SDS011;19139;49.372;8.580;2022-11-20T04:49:10;1.97;;;1.77;;
32786;SDS011;19139;49.372;8.580;2022-11-20T04:51:42;2.00;;;1.60;;
32786;SDS011;19139;49.372;8.580;2022-11-20T04:54:10;2.10;;;1.90;;
32786;SDS011;19139;49.372;8.580;2022-11-20T04:56:42;2.03;;;1.83;;
32786;SDS011;19139;49.372;8.580;2022-11-20T04:59:13;1.80;;;1.63;;
32786;SDS011;19139;49.372;8.580;2022-11-20T05:01:40;2.90;;;1.77;;
32786;SDS011;19139;49.372;8.580;2022-11-20T05:04:12;3.23;;;2.07;;
32786;SDS011;19139;49.372;8.580;2022-11-20T05:06:43;2.43;;;1.97;;
32786;SDS011;19139;49.372;8.580;2022-11-20T05:09:12;2.03;;;1.83;;
32786;SDS011;19139;49.372;8.580;2022-11-20T05:11:43;2.10;;;1.87;;
32786;SDS011;19139;49.372;8.580;2022-11-20T05:14:16;1.73;;;1.63;;
32786;SDS011;19139;49.372;8.580;2022-11-20T05:16:42;1.80;;;1.70;;
32786;SDS011;19139;49.372;8.580;2022-11-20T05:19:09;2.00;;;1.87;;
32786;SDS011;19139;49.372;8.580;2022-11-20T05:21:40;1.93;;;1.80;;
32786;SDS011;19139;49.372;8.580;2022-11-20T05:24:12;2.17;;;1.97;;
32786;SDS011;19139;49.372;8.580;2022-11-20T05:26:39;1.80;;;1.70;;
32786;SDS011;19139;49.372;8.580;2022-11-20T05:29:11;2.03;;;1.67;;
32786;SDS011;19139;49.372;8.580;2022-11-20T05:31:43;2.20;;;1.70;;
32786;SDS011;19139;49.372;8.580;2022-11-20T05:34:09;2.63;;;2.03;;
32786;SDS011;19139;49.372;8.580;2022-11-20T05:36:41;1.80;;;1.67;;
32786;SDS011;19139;49.372;8.580;2022-11-20T05:39:12;1.80;;;1.70;;
32786;SDS011;19139;49.372;8.580;2022-11-20T05:41:39;2.00;;;1.80;;
32786;SDS011;19139;49.372;8.580;2022-11-20T05:44:10;1.83;;;1.40;;
32786;SDS011;19139;49.372;8.580;2022-11-20T05:46:42;2.73;;;2.00;;
32786;SDS011;19139;49.372;8.580;2022-11-20T05:49:13;1.90;;;1.70;;
32786;SDS011;19139;49.372;8.580;2022-11-20T05:51:40;2.33;;;1.80;;
32786;SDS011;19139;49.372;8.580;2022-11-20T05:54:11;2.27;;;1.80;;
32786;SDS011;19139;49.372;8.580;2022-11-20T05:56:43;1.70;;;1.47;;
32786;SDS011;19139;49.372;8.580;2022-11-20T05:59:09;2.10;;;1.63;;
32786;SDS011;19139;49.372;8.580;2022-11-20T06:01:41;2.20;;;2.00;;
32786;SDS011;19139;49.372;8.580;2022-11-20T06:04:13;1.67;;;1.57;;
32786;SDS011;19139;49.372;8.580;2022-11-20T06:06:39;3.20;;;1.70;;
32786;SDS011;19139;49.372;8.580;2022-11-20T06:09:11;1.90;;;1.70;;
32786;SDS011;19139;49.372;8.580;2022-11-20T06:11:43;1.60;;;1.50;;
32786;SDS011;19139;49.372;8.580;2022-11-20T06:14:09;3.93;;;1.90;;
32786;SDS011;19139;49.372;8.580;2022-11-20T06:16:41;2.00;;;1.73;;
32786;SDS011;19139;49.372;8.580;2022-11-20T06:19:12;1.70;;;1.60;;
32786;SDS011;19139;49.372;8.580;2022-11-20T06:21:39;2.00;;;1.67;;
32786;SDS011;19139;49.372;8.580;2022-11-20T06:24:10;2.00;;;1.80;;
32786;SDS011;19139;49.372;8.580;2022-11-20T06:26:42;2.17;;;1.80;;
32786;SDS011;19139;49.372;8.580;2022-11-20T06:29:09;2.17;;;1.97;;
32786;SDS011;19139;49.372;8.580;2022-11-20T06:31:40;1.63;;;1.50;;
32786;SDS011;19139;49.372;8.580;2022-11-20T06:34:13;2.67;;;1.70;;
32786;SDS011;19139;49.372;8.580;2022-11-20T06:36:39;2.00;;;1.80;;
32786;SDS011;19139;49.372;8.580;2022-11-20T06:39:11;2.03;;;1.80;;
32786;SDS011;19139;49.372;8.580;2022-11-20T06:41:42;1.47;;;1.37;;
32786;SDS011;19139;49.372;8.580;2022-11-20T06:44:09;1.80;;;1.60;;
32786;SDS011;19139;49.372;8.580;2022-11-20T06:46:40;1.73;;;1.40;;
32786;SDS011;19139;49.372;8.580;2022-11-20T06:49:12;2.17;;;1.97;;
32786;SDS011;19139;49.372;8.580;2022-11-20T06:51:38;2.83;;;1.70;;
32786;SDS011;19139;49.372;8.580;2022-11-20T06:54:10;2.07;;;1.70;;
32786;SDS011;19139;49.372;8.580;2022-11-20T06:56:41;2.10;;;1.90;;
32786;SDS011;19139;49.372;8.580;2022-11-20T06:59:12;1.83;;;1.30;;
32786;SDS011;19139;49.372;8.580;2022-11-20T07:01:43;1.80;;;1.70;;
32786;SDS011;19139;49.372;8.580;2022-11-20T07:04:10;1.80;;;1.70;;
32786;SDS011;19139;49.372;8.580;2022-11-20T07:06:41;2.33;;;2.00;;
32786;SDS011;19139;49.372;8.580;2022-11-20T07:09:13;1.80;;;1.70;;
32786;SDS011;19139;49.372;8.580;2022-11-20T07:11:39;2.37;;;2.00;;
32786;SDS011;19139;49.372;8.580;2022-11-20T07:14:06;2.67;;;1.70;;
32786;SDS011;19139;49.372;8.580;2022-11-20T07:16:32;2.30;;;2.00;;
32786;SDS011;19139;49.372;8.580;2022-11-20T07:18:59;1.93;;;1.73;;
32786;SDS011;19139;49.372;8.580;2022-11-20T07:21:26;1.60;;;1.50;;
32786;SDS011;19139;49.372;8.580;2022-11-20T07:23:52;1.60;;;1.47;;
32786;SDS011;19139;49.372;8.580;2022-11-20T07:26:19;1.63;;;1.47;;
32786;SDS011;19139;49.372;8.580;2022-11-20T07:28:45;1.77;;;1.43;;
32786;SDS011;19139;49.372;8.580;2022-11-20T07:31:12;1.70;;;1.60;;
32786;SDS011;19139;49.372;8.580;2022-11-20T07:33:44;1.40;;;1.30;;
32786;SDS011;19139;49.372;8.580;2022-11-20T07:36:11;2.30;;;2.10;;
32786;SDS011;19139;49.372;8.580;2022-11-20T07:38:42;3.00;;;2.10;;
32786;SDS011;19139;49.372;8.580;2022-11-20T07:41:09;2.10;;;1.50;;
32786;SDS011;19139;49.372;8.580;2022-11-20T07:43:35;1.87;;;1.77;;
32786;SDS011;19139;49.372;8.580;2022-11-20T07:46:06;1.77;;;1.67;;
32786;SDS011;19139;49.372;8.580;2022-11-20T07:48:33;1.90;;;1.80;;
32786;SDS011;19139;49.372;8.580;2022-11-20T07:50:59;1.50;;;1.40;;
32786;SDS011;19139;49.372;8.580;2022-11-20T07:53:26;1.43;;;1.33;;
32786;SDS011;19139;49.372;8.580;2022-11-20T07:55:52;2.03;;;1.83;;
32786;SDS011;19139;49.372;8.580;2022-11-20T07:58:19;2.33;;;1.80;;
32786;SDS011;19139;49.372;8.580;2022-11-20T08:00:51;1.73;;;1.60;;
32786;SDS011;19139;49.372;8.580;2022-11-20T08:03:23;1.50;;;1.40;;
32786;SDS011;19139;49.372;8.580;2022-11-20T08:05:51;1.63;;;1.50;;
32786;SDS011;19139;49.372;8.580;2022-11-20T08:08:22;1.87;;;1.67;;
32786;SDS011;19139;49.372;8.580;2022-11-20T08:10:49;1.83;;;1.73;;
32786;SDS011;19139;49.372;8.580;2022-11-20T08:13:15;1.60;;;1.50;;
32786;SDS011;19139;49.372;8.580;2022-11-20T08:16:01;1.40;;;1.30;;
32786;SDS011;19139;49.372;8.580;2022-11-20T08:18:32;1.90;;;1.73;;
32786;SDS011;19139;49.372;8.580;2022-11-20T08:21:03;1.70;;;1.50;;
32786;SDS011;19139;49.372;8.580;2022-11-20T08:23:30;2.33;;;1.70;;
32786;SDS011;19139;49.372;8.580;2022-11-20T08:25:57;1.60;;;1.50;;
32786;SDS011;19139;49.372;8.580;2022-11-20T08:28:24;2.60;;;1.67;;
32786;SDS011;19139;49.372;8.580;2022-11-20T08:30:50;2.20;;;2.00;;
32786;SDS011;19139;49.372;8.580;2022-11-20T08:33:17;2.10;;;1.63;;
32786;SDS011;19139;49.372;8.580;2022-11-20T08:35:44;1.90;;;1.50;;
32786;SDS011;19139;49.372;8.580;2022-11-20T08:38:11;1.70;;;1.60;;
32786;SDS011;19139;49.372;8.580;2022-11-20T08:40:43;3.03;;;2.43;;
32786;SDS011;19139;49.372;8.580;2022-11-20T08:43:32;1.97;;;1.77;;
32786;SDS011;19139;49.372;8.580;2022-11-20T08:46:04;1.70;;;1.43;;
32786;SDS011;19139;49.372;8.580;2022-11-20T08:48:30;2.27;;;1.50;;
32786;SDS011;19139;49.372;8.580;2022-11-20T08:51:02;2.13;;;1.93;;
32786;SDS011;19139;49.372;8.580;2022-11-20T08:53:34;2.63;;;1.60;;
32786;SDS011;19139;49.372;8.580;2022-11-20T08:56:00;1.50;;;1.33;;
32786;SDS011;19139;49.372;8.580;2022-11-20T08:58:32;2.50;;;1.87;;
32786;SDS011;19139;49.372;8.580;2022-11-20T09:01:03;5.67;;;2.90;;
32786;SDS011;19139;49.372;8.580;2022-11-20T09:03:30;3.63;;;3.10;;
32786;SDS011;19139;49.372;8.580;2022-11-20T09:06:02;3.60;;;3.10;;
32786;SDS011;19139;49.372;8.580;2022-11-20T09:08:30;4.97;;;3.70;;
32786;SDS011;19139;49.372;8.580;2022-11-20T09:10:57;4.33;;;3.63;;
32786;SDS011;19139;49.372;8.580;2022-11-20T09:13:25;4.50;;;4.10;;
32786;SDS011;19139;49.372;8.580;2022-11-20T09:15:54;3.93;;;3.13;;
32786;SDS011;19139;49.372;8.580;2022-11-20T09:18:26;4.33;;;3.57;;
32786;SDS011;19139;49.372;8.580;2022-11-20T09:20:59;4.90;;;3.90;;
32786;SDS011;19139;49.372;8.580;2022-11-20T09:23:30;4.17;;;3.10;;
32786;SDS011;19139;49.372;8.580;2022-11-20T09:25:57;3.07;;;2.67;;
32786;SDS011;19139;49.372;8.580;2022-11-20T09:28:27;3.80;;;2.53;;
32786;SDS011;19139;49.372;8.580;2022-11-20T09:30:58;2.67;;;2.10;;
32786;SDS011;19139;49.372;8.580;2022-11-20T09:33:30;2.43;;;2.20;;
32786;SDS011;19139;49.372;8.580;2022-11-20T09:35:57;3.27;;;1.97;;
32786;SDS011;19139;49.372;8.580;2022-11-20T09:38:28;7.27;;;2.37;;
32786;SDS011;19139;49.372;8.580;2022-11-20T09:41:03;2.10;;;1.70;;
32786;SDS011;19139;49.372;8.580;2022-11-20T09:46:40;3.40;;;2.07;;
32786;SDS011;19139;49.372;8.580;2022-11-20T09:49:21;2.80;;;1.50;;
32786;SDS011;19139;49.372;8.580;2022-11-20T09:55:08;3.83;;;1.60;;
32786;SDS011;19139;49.372;8.580;2022-11-20T09:57:38;3.10;;;1.87;;
32786;SDS011;19139;49.372;8.580;2022-11-20T10:00:11;2.20;;;1.23;;
32786;SDS011;19139;49.372;8.580;2022-11-20T10:05:40;1.87;;;1.43;;
32786;SDS011;19139;49.372;8.580;2022-11-20T10:11:04;3.97;;;1.33;;
32786;SDS011;19139;49.372;8.580;2022-11-20T10:16:25;2.70;;;1.80;;
32786;SDS011;19139;49.372;8.580;2022-11-20T10:19:25;3.10;;;1.63;;
32786;SDS011;19139;49.372;8.580;2022-11-20T10:30:38;1.80;;;1.40;;
32786;SDS011;19139;49.372;8.580;2022-11-20T10:38:46;2.93;;;1.80;;
32786;SDS011;19139;49.372;8.580;2022-11-20T10:41:21;1.53;;;1.40;;
32786;SDS011;19139;49.372;8.580;2022-11-20T10:46:35;2.57;;;1.40;;
32786;SDS011;19139;49.372;8.580;2022-11-20T10:49:18;1.93;;;1.10;;
32786;SDS011;19139;49.372;8.580;2022-11-20T10:51:55;1.50;;;1.33;;
32786;SDS011;19139;49.372;8.580;2022-11-20T11:00:23;2.40;;;1.27;;
32786;SDS011;19139;49.372;8.580;2022-11-20T11:02:54;3.67;;;1.40;;
32786;SDS011;19139;49.372;8.580;2022-11-20T11:05:35;3.90;;;1.40;;
32786;SDS011;19139;49.372;8.580;2022-11-20T11:08:11;2.10;;;1.67;;
32786;SDS011;19139;49.372;8.580;2022-11-20T11:10:53;2.33;;;1.60;;
32786;SDS011;19139;49.372;8.580;2022-11-20T11:13:26;4.30;;;2.10;;
32786;SDS011;19139;49.372;8.580;2022-11-20T11:15:59;3.00;;;1.40;;
32786;SDS011;19139;49.372;8.580;2022-11-20T11:18:32;4.07;;;1.90;;
32786;SDS011;19139;49.372;8.580;2022-11-20T11:21:05;2.87;;;1.90;;
32786;SDS011;19139;49.372;8.580;2022-11-20T11:29:03;6.07;;;1.83;;
32786;SDS011;19139;49.372;8.580;2022-11-20T11:31:31;3.10;;;1.40;;
32786;SDS011;19139;49.372;8.580;2022-11-20T11:36:33;3.87;;;1.47;;
32786;SDS011;19139;49.372;8.580;2022-11-20T11:39:02;4.20;;;1.93;;
32786;SDS011;19139;49.372;8.580;2022-11-20T11:41:32;1.97;;;1.30;;
32786;SDS011;19139;49.372;8.580;2022-11-20T11:44:16;4.63;;;1.33;;
32786;SDS011;19139;49.372;8.580;2022-11-20T11:47:04;2.77;;;1.93;;
32786;SDS011;19139;49.372;8.580;2022-11-20T11:49:40;3.43;;;1.60;;
32786;SDS011;19139;49.372;8.580;2022-11-20T11:54:58;2.70;;;1.53;;
32786;SDS011;19139;49.372;8.580;2022-11-20T11:57:43;5.53;;;1.63;;
32786;SDS011;19139;49.372;8.580;2022-11-20T12:00:19;4.10;;;1.83;;
32786;SDS011;19139;49.372;8.580;2022-11-20T12:03:00;4.90;;;1.63;;
32786;SDS011;19139;49.372;8.580;2022-11-20T12:05:46;3.90;;;1.87;;
32786;SDS011;19139;49.372;8.580;2022-11-20T12:11:24;5.40;;;1.60;;
32786;SDS011;19139;49.372;8.580;2022-11-20T12:14:17;5.27;;;1.70;;
32786;SDS011;19139;49.372;8.580;2022-11-20T12:17:02;4.60;;;1.73;;
32786;SDS011;19139;49.372;8.580;2022-11-20T12:19:30;5.87;;;1.90;;
32786;SDS011;19139;49.372;8.580;2022-11-20T12:22:05;2.00;;;1.27;;
32786;SDS011;19139;49.372;8.580;2022-11-20T12:24:42;4.50;;;1.50;;
32786;SDS011;19139;49.372;8.580;2022-11-20T12:27:43;5.57;;;1.50;;
32786;SDS011;19139;49.372;8.580;2022-11-20T12:30:14;3.70;;;1.70;;
32786;SDS011;19139;49.372;8.580;2022-11-20T12:41:31;2.43;;;1.77;;
32786;SDS011;19139;49.372;8.580;2022-11-20T12:50:14;3.60;;;1.27;;
32786;SDS011;19139;49.372;8.580;2022-11-20T12:53:32;4.63;;;1.60;;
32786;SDS011;19139;49.372;8.580;2022-11-20T13:01:56;2.77;;;1.03;;
32786;SDS011;19139;49.372;8.580;2022-11-20T13:07:46;4.07;;;1.67;;
32786;SDS011;19139;49.372;8.580;2022-11-20T13:10:16;3.67;;;1.33;;
32786;SDS011;19139;49.372;8.580;2022-11-20T13:16:18;2.33;;;1.33;;
32786;SDS011;19139;49.372;8.580;2022-11-20T13:18:56;1.63;;;1.33;;
32786;SDS011;19139;49.372;8.580;2022-11-20T13:21:40;2.27;;;1.40;;
32786;SDS011;19139;49.372;8.580;2022-11-20T13:29:28;3.77;;;1.17;;
32786;SDS011;19139;49.372;8.580;2022-11-20T13:35:23;3.63;;;1.23;;
32786;SDS011;19139;49.372;8.580;2022-11-20T13:40:52;2.40;;;1.10;;
32786;SDS011;19139;49.372;8.580;2022-11-20T13:43:37;2.57;;;1.13;;
32786;SDS011;19139;49.372;8.580;2022-11-20T13:46:11;2.70;;;1.23;;
32786;SDS011;19139;49.372;8.580;2022-11-20T13:48:39;3.60;;;1.23;;
32786;SDS011;19139;49.372;8.580;2022-11-20T13:51:25;3.07;;;1.27;;
32786;SDS011;19139;49.372;8.580;2022-11-20T14:00:09;2.53;;;1.23;;
32786;SDS011;19139;49.372;8.580;2022-11-20T14:03:07;1.50;;;1.20;;
32786;SDS011;19139;49.372;8.580;2022-11-20T14:05:49;2.83;;;1.30;;
32786;SDS011;19139;49.372;8.580;2022-11-20T14:08:24;2.50;;;1.30;;
32786;SDS011;19139;49.372;8.580;2022-11-20T14:11:13;2.20;;;1.17;;
32786;SDS011;19139;49.372;8.580;2022-11-20T14:14:04;2.40;;;1.10;;
32786;SDS011;19139;49.372;8.580;2022-11-20T14:16:45;2.70;;;1.37;;
32786;SDS011;19139;49.372;8.580;2022-11-20T14:21:47;2.00;;;1.20;;
32786;SDS011;19139;49.372;8.580;2022-11-20T14:24:39;1.87;;;0.77;;
32786;SDS011;19139;49.372;8.580;2022-11-20T14:27:15;1.50;;;1.00;;
32786;SDS011;19139;49.372;8.580;2022-11-20T14:29:47;1.77;;;0.90;;
32786;SDS011;19139;49.372;8.580;2022-11-20T14:32:22;1.43;;;1.20;;
32786;SDS011;19139;49.372;8.580;2022-11-20T14:34:59;2.57;;;1.53;;
32786;SDS011;19139;49.372;8.580;2022-11-20T14:37:39;1.77;;;0.73;;
32786;SDS011;19139;49.372;8.580;2022-11-20T14:40:23;2.17;;;1.27;;
32786;SDS011;19139;49.372;8.580;2022-11-20T14:42:58;1.80;;;0.87;;
32786;SDS011;19139;49.372;8.580;2022-11-20T14:45:30;1.20;;;1.00;;
32786;SDS011;19139;49.372;8.580;2022-11-20T14:47:57;2.07;;;0.90;;
32786;SDS011;19139;49.372;8.580;2022-11-20T14:50:30;1.40;;;0.90;;
32786;SDS011;19139;49.372;8.580;2022-11-20T14:52:58;1.43;;;0.80;;
32786;SDS011;19139;49.372;8.580;2022-11-20T14:55:32;2.10;;;1.10;;
32786;SDS011;19139;49.372;8.580;2022-11-20T14:58:21;1.47;;;1.00;;
32786;SDS011;19139;49.372;8.580;2022-11-20T15:03:38;2.10;;;0.90;;
32786;SDS011;19139;49.372;8.580;2022-11-20T15:06:07;2.17;;;1.07;;
32786;SDS011;19139;49.372;8.580;2022-11-20T15:08:36;1.37;;;0.90;;
32786;SDS011;19139;49.372;8.580;2022-11-20T15:11:22;1.40;;;0.90;;
32786;SDS011;19139;49.372;8.580;2022-11-20T15:14:02;2.63;;;1.00;;
32786;SDS011;19139;49.372;8.580;2022-11-20T15:16:36;1.43;;;1.00;;
32786;SDS011;19139;49.372;8.580;2022-11-20T15:19:15;1.43;;;0.90;;
32786;SDS011;19139;49.372;8.580;2022-11-20T15:21:49;1.40;;;1.00;;
32786;SDS011;19139;49.372;8.580;2022-11-20T15:24:16;2.07;;;0.90;;
32786;SDS011;19139;49.372;8.580;2022-11-20T15:26:48;1.93;;;1.10;;
32786;SDS011;19139;49.372;8.580;2022-11-20T15:29:19;1.40;;;1.10;;
32786;SDS011;19139;49.372;8.580;2022-11-20T15:31:53;1.10;;;1.00;;
32786;SDS011;19139;49.372;8.580;2022-11-20T15:34:26;1.43;;;0.90;;
32786;SDS011;19139;49.372;8.580;2022-11-20T15:36:58;2.23;;;1.50;;
32786;SDS011;19139;49.372;8.580;2022-11-20T15:39:30;2.57;;;1.43;;
32786;SDS011;19139;49.372;8.580;2022-11-20T15:41:56;1.60;;;0.93;;
32786;SDS011;19139;49.372;8.580;2022-11-20T15:44:28;2.20;;;1.10;;
32786;SDS011;19139;49.372;8.580;2022-11-20T15:46:59;4.50;;;1.00;;
32786;SDS011;19139;49.372;8.580;2022-11-20T15:49:31;2.90;;;1.20;;
32786;SDS011;19139;49.372;8.580;2022-11-20T15:51:57;1.40;;;1.10;;
32786;SDS011;19139;49.372;8.580;2022-11-20T15:54:29;2.60;;;1.03;;
32786;SDS011;19139;49.372;8.580;2022-11-20T15:57:00;1.43;;;1.17;;
32786;SDS011;19139;49.372;8.580;2022-11-20T15:59:33;1.93;;;1.00;;
32786;SDS011;19139;49.372;8.580;2022-11-20T16:02:10;2.23;;;1.13;;
32786;SDS011;19139;49.372;8.580;2022-11-20T16:04:42;2.37;;;0.90;;
32786;SDS011;19139;49.372;8.580;2022-11-20T16:07:14;2.40;;;0.97;;
32786;SDS011;19139;49.372;8.580;2022-11-20T16:09:46;2.03;;;1.20;;
32786;SDS011;19139;49.372;8.580;2022-11-20T16:12:17;1.27;;;1.00;;
32786;SDS011;19139;49.372;8.580;2022-11-20T16:15:09;1.43;;;0.97;;
32786;SDS011;19139;49.372;8.580;2022-11-20T16:17:59;2.50;;;1.10;;
32786;SDS011;19139;49.372;8.580;2022-11-20T16:20:30;2.30;;;0.87;;
32786;SDS011;19139;49.372;8.580;2022-11-20T16:22:57;1.50;;;1.00;;
32786;SDS011;19139;49.372;8.580;2022-11-20T16:25:28;2.90;;;1.40;;
32786;SDS011;19139;49.372;8.580;2022-11-20T16:28:00;2.13;;;1.00;;
32786;SDS011;19139;49.372;8.580;2022-11-20T16:30:27;4.10;;;1.53;;
32786;SDS011;19139;49.372;8.580;2022-11-20T16:32:58;2.67;;;1.13;;
32786;SDS011;19139;49.372;8.580;2022-11-20T16:35:31;3.20;;;1.37;;
32786;SDS011;19139;49.372;8.580;2022-11-20T16:38:02;2.03;;;0.93;;
32786;SDS011;19139;49.372;8.580;2022-11-20T16:40:34;2.57;;;1.10;;
32786;SDS011;19139;49.372;8.580;2022-11-20T16:43:07;5.37;;;1.40;;
32786;SDS011;19139;49.372;8.580;2022-11-20T16:45:41;2.17;;;1.17;;
32786;SDS011;19139;49.372;8.580;2022-11-20T16:48:14;3.10;;;1.10;;
32786;SDS011;19139;49.372;8.580;2022-11-20T16:50:47;5.43;;;1.30;;
32786;SDS011;19139;49.372;8.580;2022-11-20T16:53:23;4.70;;;2.17;;
32786;SDS011;19139;49.372;8.580;2022-11-20T16:55:55;2.37;;;1.20;;
32786;SDS011;19139;49.372;8.580;2022-11-20T16:58:26;3.07;;;1.33;;
32786;SDS011;19139;49.372;8.580;2022-11-20T17:01:03;4.23;;;1.27;;
32786;SDS011;19139;49.372;8.580;2022-11-20T17:03:37;1.83;;;0.97;;